Terminal Aerodrome Forecast
Issued by NWS

Home | Current Version | Previous Version | Text Only | Print | Product List | Glossary On
Versions: 1 2 3 4 5 6 7 8 9 10 11 12
000
FTUS44 KLIX 240526
TAFGPT
TAF
KGPT 240526Z 2406/2506 35005KT P6SM SKC
     FM241400 07005KT P6SM SCT035
     FM241800 12008KT P6SM VCTS SCT040CB SCT250
     FM250000 14006KT P6SM FEW030 BKN110=

USA.gov is the U.S. government's official web portal to all federal, state and local government web resources and services.